Disclaimer

Please do not use the information listed here in-flight or in-navigation, as they are not provided to us by the airports but are provided by volunteers, so they might be outdated.

Search


Regions


Airport information page

Radio informations:
Approach (APP) - 123.5 MHz

Airport informations:
Latitude: 37° 59' 12.53" N
Longitude: 058° 21' 39.48" E
Elevation: 692 feet - 211 meters
Operating hours: 24 hour operations
Operating agency: Civil government, landing fees and diplomatic clearance may be required
Timezone: UTC+5
Fuel: Jet A1, without icing nhibitor.

Runway information:
11/29 - 5907 x 114 feet< - >1800 x 35 meters
12R/30L - 9806 x 196 feet< - >2989 x 60 meters
12L/30R - 12467 x 151 feet< - >3800 x 46 meters

Recent METARs:
UTAA 201600Z 12004KT 5000 BR SCT007 BKN100 09/07 Q1021 R88/CLRD70 NOSIG
UTAA 201600Z 12004KT 5000 BR SCT007 BKN100 09/07 Q1021 R88/70D NOSIG
UTAA 201700Z 10004KT 3100 BR OVC005 09/08 Q1020 R88/CLRD70 TEMPO 1200 BR OVC004

Airport on the map: